CYQB

Quebec / Jean Lesage International Airport

Quebec, , Canada
METAR CYQB 221500Z 26013KT 30SM BKN035 01/M06 A3007 RMK SC7 SLP189
Observed Flight Rules
Oct-22 @ 15:00 UTC (25 minutes ago) Visual Flight Rules
Wind Visibility Clouds
260° at 13 knots 30 miles
  • Broken at 3,500' AGL
Temperatures Readings
Current 1°C / 34°F
Dewpoint -6°C / 21°F
Humidity 60%
Altimeter 30.07" Hg
Pressure 1018.9 hPa
Elevation 73
METAR CYQB 221500Z 26013KT 30SM BKN035 01/M06 A3007 RMK SC7 SLP189
Observed Flight Rules
Oct-22 @ 15:00 UTC
(25 minutes ago)
VFR
Wind Visibility
260° at 13 knots 30 miles
Clouds
  • Broken at 3,500' AGL
Temperature Dewpoint
1°C / 34°F -6°C / 21°F
Humidity Altimeter Pressure
60% 30.07" Hg 1018.9 hPa